Time;durP1;ratioP1;P1;durP2;ratioP2;P2;SDS_P1;SDS_P2;PMS_P1;PMS_P2;Temp;Humidity;BMP_temperature;BMP_pressure;BME280_temperature;BME280_humidity;BME280_pressure;Samples;Min_cycle;Max_cycle;Signal;HPM_P1;HPM_P2
2021/05/11 00:00:55;;;;;;;11.83;4.03;;;13.20;99.90;;;;;;5052507;28;20551;-68
2021/05/11 00:03:21;;;;;;;10.00;4.30;;;13.10;99.90;;;;;;5049784;28;20290;-68
2021/05/11 00:05:46;;;;;;;11.17;5.00;;;13.20;99.90;;;;;;5033257;28;20269;-69
2021/05/11 00:08:12;;;;;;;8.30;3.60;;;13.20;99.90;;;;;;5048357;28;20179;-67
2021/05/11 00:10:38;;;;;;;9.03;4.10;;;13.10;99.90;;;;;;5055327;28;20248;-67
2021/05/11 00:13:03;;;;;;;14.87;5.97;;;13.20;99.90;;;;;;5043334;28;20257;-68
2021/05/11 00:15:29;;;;;;;12.70;5.30;;;13.10;99.90;;;;;;5048330;28;20195;-69
2021/05/11 00:17:54;;;;;;;10.47;4.87;;;13.10;99.90;;;;;;5045616;28;20184;-68
2021/05/11 00:20:21;;;;;;;11.80;4.90;;;13.10;99.90;;;;;;5037354;28;20174;-68
2021/05/11 00:22:47;;;;;;;11.48;5.85;;;13.10;99.90;;;;;;5046030;28;20544;-68
2021/05/11 00:25:13;;;;;;;12.03;4.87;;;13.10;99.90;;;;;;5056548;28;20200;-68
2021/05/11 00:27:41;;;;;;;13.30;5.10;;;13.00;99.90;;;;;;5048726;28;20426;-68
2021/05/11 00:30:07;;;;;;;7.80;3.63;;;13.00;99.90;;;;;;5036968;28;20398;-68
2021/05/11 00:32:33;;;;;;;11.90;5.07;;;13.10;99.90;;;;;;5043285;28;20407;-67
2021/05/11 00:34:59;;;;;;;10.43;4.03;;;13.10;99.90;;;;;;5050608;28;20500;-68
2021/05/11 00:37:24;;;;;;;12.90;5.00;;;13.00;99.90;;;;;;5041203;28;20213;-68
2021/05/11 00:39:50;;;;;;;10.53;4.30;;;13.00;99.90;;;;;;5053740;28;20179;-68
2021/05/11 00:42:16;;;;;;;12.83;4.73;;;13.00;99.90;;;;;;5039233;28;20197;-69
2021/05/11 00:44:41;;;;;;;12.27;4.53;;;13.00;99.90;;;;;;5056261;28;20592;-67
2021/05/11 00:47:07;;;;;;;12.93;5.30;;;13.00;99.90;;;;;;5055542;28;20168;-68
2021/05/11 00:49:34;;;;;;;9.50;4.50;;;13.00;99.90;;;;;;5037001;28;20163;-68
2021/05/11 00:52:01;;;;;;;10.45;4.72;;;12.90;99.90;;;;;;5036713;28;20653;-69
2021/05/11 00:54:27;;;;;;;8.83;3.60;;;12.90;99.90;;;;;;5053259;28;20221;-68
2021/05/11 00:56:53;;;;;;;10.30;5.17;;;12.90;99.90;;;;;;5036679;28;20438;-69
2021/05/11 00:59:27;;;;;;;13.20;5.20;;;13.00;99.90;;;;;;5053789;28;20316;-70
2021/05/11 01:01:53;;;;;;;9.00;4.15;;;13.00;99.90;;;;;;5056299;28;20263;-69
2021/05/11 01:04:19;;;;;;;12.25;4.57;;;12.90;99.90;;;;;;5038466;28;20560;-68
2021/05/11 01:06:45;;;;;;;9.80;5.50;;;12.90;99.90;;;;;;5049522;28;20250;-69
2021/05/11 01:09:11;;;;;;;9.70;4.17;;;13.00;99.90;;;;;;5040667;28;20257;-68
2021/05/11 01:11:37;;;;;;;10.50;4.03;;;12.90;99.90;;;;;;5036195;28;20406;-69
2021/05/11 01:14:04;;;;;;;9.18;3.88;;;12.90;99.90;;;;;;5049087;28;20817;-69
2021/05/11 01:16:32;;;;;;;11.20;5.77;;;12.90;99.90;;;;;;5039199;28;20185;-68
2021/05/11 01:19:07;;;;;;;9.57;4.27;;;12.90;99.90;;;;;;5047430;28;20848;-67
2021/05/11 01:24:28;;;;;;;14.70;5.60;;;12.80;99.90;;;;;;5040977;28;20280;-68
2021/05/11 02:23:02;;;;;;;16.42;6.07;;;13.00;99.90;;;;;;5043673;28;20298;-68
2021/05/11 02:25:28;;;;;;;15.90;6.25;;;13.00;99.90;;;;;;5034549;28;20206;-68
2021/05/11 02:27:53;;;;;;;13.10;5.70;;;13.00;99.90;;;;;;5043379;28;20171;-68
2021/05/11 02:30:19;;;;;;;13.53;6.10;;;13.10;99.90;;;;;;5054230;28;20422;-68
2021/05/11 02:32:45;;;;;;;14.70;6.00;;;13.10;99.90;;;;;;5046329;28;20271;-68
2021/05/11 02:35:14;;;;;;;13.07;5.57;;;13.10;99.90;;;;;;5034241;28;20850;-69
2021/05/11 02:37:40;;;;;;;15.65;5.78;;;13.00;99.90;;;;;;5040036;28;20485;-68
2021/05/11 02:40:08;;;;;;;11.53;4.20;;;13.10;99.90;;;;;;5054546;28;20632;-68
2021/05/11 02:42:35;;;;;;;13.77;4.85;;;13.10;99.90;;;;;;5050152;28;20453;-68
2021/05/11 02:45:02;;;;;;;16.27;3.58;;;13.10;99.90;;;;;;5044049;28;20719;-68
2021/05/11 02:47:28;;;;;;;13.00;5.50;;;13.10;99.90;;;;;;5051574;28;20264;-67
2021/05/11 02:49:54;;;;;;;11.27;3.33;;;13.10;99.90;;;;;;5034365;28;20503;-68
2021/05/11 02:52:19;;;;;;;9.93;3.90;;;13.00;99.90;;;;;;5034836;28;20174;-68
2021/05/11 02:54:45;;;;;;;12.37;4.40;;;13.00;99.90;;;;;;5053901;28;20194;-67
2021/05/11 02:57:11;;;;;;;15.23;5.50;;;13.10;99.90;;;;;;5054241;28;20185;-68
2021/05/11 02:59:37;;;;;;;13.07;4.40;;;13.10;99.90;;;;;;5034907;28;20545;-67
2021/05/11 03:02:03;;;;;;;10.53;5.27;;;13.10;99.90;;;;;;5033899;28;20673;-67
2021/05/11 03:04:28;;;;;;;13.03;3.93;;;13.10;99.90;;;;;;5050465;28;20441;-68
2021/05/11 03:06:57;;;;;;;9.83;3.77;;;13.10;99.90;;;;;;5052554;28;20752;-68
2021/05/11 03:09:27;;;;;;;12.57;6.70;;;13.10;99.90;;;;;;5034007;28;20208;-67
2021/05/11 03:11:54;;;;;;;12.47;4.50;;;13.10;99.90;;;;;;5032821;28;20194;-69
2021/05/11 03:14:20;;;;;;;9.07;3.03;;;13.20;99.90;;;;;;5044092;28;20441;-69
2021/05/11 03:16:47;;;;;;;11.82;4.07;;;13.10;99.90;;;;;;5033919;28;20202;-68
2021/05/11 03:19:12;;;;;;;12.20;4.60;;;13.10;99.90;;;;;;5052269;28;20656;-67
2021/05/11 03:21:38;;;;;;;8.77;4.33;;;13.10;99.90;;;;;;5053768;28;20443;-68
2021/05/11 03:24:05;;;;;;;11.13;4.23;;;13.10;99.90;;;;;;5035751;28;20262;-68
2021/05/11 03:26:30;;;;;;;17.10;5.30;;;13.10;99.90;;;;;;5033588;28;20187;-69
2021/05/11 03:28:56;;;;;;;10.90;4.00;;;13.10;99.90;;;;;;5048489;28;20423;-68
2021/05/11 03:31:22;;;;;;;12.00;4.90;;;13.10;99.90;;;;;;5053577;28;20172;-68
2021/05/11 03:33:47;;;;;;;10.27;3.97;;;13.10;99.90;;;;;;5039709;28;20674;-68
2021/05/11 03:36:13;;;;;;;10.40;4.30;;;13.10;99.90;;;;;;5033563;28;20286;-68
2021/05/11 03:38:41;;;;;;;12.07;4.80;;;13.10;99.90;;;;;;5044715;28;20182;-68
2021/05/11 03:41:07;;;;;;;10.83;3.70;;;13.00;99.90;;;;;;5053588;28;20182;-69
2021/05/11 03:43:38;;;;;;;8.53;3.70;;;13.00;99.90;;;;;;5043073;28;20973;-68
2021/05/11 03:46:08;;;;;;;12.27;5.03;;;13.00;99.90;;;;;;5033372;28;20444;-68
2021/05/11 03:48:34;;;;;;;14.25;5.18;;;13.00;99.90;;;;;;5042598;28;20176;-68
2021/05/11 03:51:05;;;;;;;18.33;4.87;;;13.00;99.90;;;;;;5040992;28;20270;-69
2021/05/11 03:53:32;;;;;;;19.10;5.40;;;13.00;99.90;;;;;;5041399;28;20177;-69
2021/05/11 03:55:58;;;;;;;11.93;4.38;;;13.00;99.90;;;;;;5053099;28;20453;-68
2021/05/11 03:58:24;;;;;;;12.87;4.50;;;12.90;99.90;;;;;;5046030;28;20639;-68
2021/05/11 04:00:50;;;;;;;13.25;5.55;;;13.00;99.90;;;;;;5033396;28;20174;-68
2021/05/11 04:03:16;;;;;;;10.70;4.70;;;13.00;99.90;;;;;;5037894;28;20210;-68
2021/05/11 04:05:41;;;;;;;9.37;3.30;;;13.00;99.90;;;;;;5053196;28;20196;-68
2021/05/11 04:08:07;;;;;;;15.07;6.40;;;13.00;99.90;;;;;;5035256;28;20186;-66
2021/05/11 04:18:20;;;;;;;23.13;4.60;;;13.10;99.90;;;;;;5053287;28;20261;-67
2021/05/11 04:20:47;;;;;;;14.43;4.93;;;13.20;99.90;;;;;;5048179;28;20206;-68
2021/05/11 04:23:13;;;;;;;13.27;5.53;;;13.10;99.90;;;;;;5032531;28;20201;-68
2021/05/11 04:25:39;;;;;;;13.87;5.67;;;13.10;99.90;;;;;;5035514;28;20690;-68
2021/05/11 04:28:05;;;;;;;12.97;5.60;;;13.20;99.90;;;;;;5052570;28;20181;-67
2021/05/11 04:30:30;;;;;;;10.87;4.77;;;13.20;99.90;;;;;;5051398;28;20404;-69
2021/05/11 04:32:56;;;;;;;17.13;4.87;;;13.20;99.90;;;;;;5033119;28;20178;-67
2021/05/11 04:35:22;;;;;;;14.10;4.30;;;13.20;99.90;;;;;;5032756;28;20329;-68
2021/05/11 04:37:47;;;;;;;13.37;6.27;;;13.20;99.90;;;;;;5051971;28;20181;-68
2021/05/11 04:40:13;;;;;;;9.30;4.30;;;13.30;99.90;;;;;;5046744;28;20256;-68
2021/05/11 04:42:42;;;;;;;11.53;4.60;;;13.30;99.90;;;;;;5050354;28;20220;-67
2021/05/11 04:45:09;;;;;;;11.33;5.07;;;13.30;99.90;;;;;;5052254;28;20462;-68
2021/05/11 04:47:47;;;;;;;13.75;4.93;;;13.30;99.90;;;;;;5036020;28;20424;-68
2021/05/11 04:50:19;;;;;;;12.13;4.60;;;13.30;99.90;;;;;;5014968;28;20182;-68
2021/05/11 04:52:45;;;;;;;12.70;6.17;;;13.30;99.90;;;;;;5049844;28;20424;-68
2021/05/11 04:55:12;;;;;;;14.70;5.77;;;13.30;99.90;;;;;;5052247;28;20450;-68
2021/05/11 04:57:37;;;;;;;11.50;4.33;;;13.40;99.90;;;;;;5022194;28;20927;-67
2021/05/11 05:00:05;;;;;;;11.50;4.93;;;13.40;99.90;;;;;;5036348;28;20424;-68
2021/05/11 05:02:32;;;;;;;11.82;4.53;;;13.40;99.90;;;;;;5050306;28;20199;-68
2021/05/11 05:04:58;;;;;;;10.65;4.53;;;13.40;99.90;;;;;;5037080;28;20281;-68
2021/05/11 05:07:23;;;;;;;11.75;4.70;;;13.40;99.90;;;;;;5048799;28;20186;-68
2021/05/11 05:09:49;;;;;;;14.40;6.20;;;13.50;99.90;;;;;;5056069;28;20170;-68
2021/05/11 05:12:15;;;;;;;12.63;5.70;;;13.50;99.90;;;;;;5044694;28;20204;-67
2021/05/11 05:14:40;;;;;;;9.73;4.50;;;13.50;99.90;;;;;;5035612;28;20198;-68
2021/05/11 05:17:06;;;;;;;15.40;5.30;;;13.50;99.90;;;;;;5045158;28;20251;-68
2021/05/11 05:19:33;;;;;;;11.33;5.87;;;13.50;99.90;;;;;;5055935;28;20170;-68
2021/05/11 05:22:00;;;;;;;13.60;4.50;;;13.50;99.90;;;;;;5047821;28;20179;-68
2021/05/11 05:24:31;;;;;;;11.25;3.95;;;13.60;99.90;;;;;;5035590;28;20425;-68
2021/05/11 05:27:01;;;;;;;11.57;5.30;;;13.60;99.90;;;;;;5036818;28;20199;-68
2021/05/11 05:29:27;;;;;;;12.93;4.93;;;13.60;99.90;;;;;;5035967;28;20408;-68
2021/05/11 05:31:53;;;;;;;11.57;6.03;;;13.60;99.90;;;;;;5041614;28;20420;-68
2021/05/11 05:34:19;;;;;;;11.63;4.33;;;13.60;99.90;;;;;;5055181;28;20252;-67
2021/05/11 05:36:44;;;;;;;13.53;5.63;;;13.70;99.90;;;;;;5051290;28;20223;-67
2021/05/11 05:39:10;;;;;;;11.80;6.33;;;13.80;99.90;;;;;;5035917;28;20168;-67
2021/05/11 05:41:36;;;;;;;11.93;4.90;;;13.80;99.90;;;;;;5038003;28;20200;-68
2021/05/11 05:44:02;;;;;;;15.17;5.40;;;13.80;99.90;;;;;;5055016;28;20194;-68
2021/05/11 05:46:28;;;;;;;9.70;3.80;;;13.80;99.90;;;;;;5053781;28;20414;-68
2021/05/11 05:48:53;;;;;;;11.60;3.50;;;13.80;99.90;;;;;;5055466;28;20824;-68
2021/05/11 05:51:20;;;;;;;12.83;4.80;;;13.80;99.90;;;;;;5048340;28;20254;-67
2021/05/11 05:53:46;;;;;;;12.40;4.90;;;13.80;99.90;;;;;;5055083;28;20188;-68
2021/05/11 05:56:15;;;;;;;10.03;4.03;;;13.80;99.90;;;;;;5044776;28;20447;-68
2021/05/11 05:58:41;;;;;;;12.77;4.50;;;13.80;99.90;;;;;;5035509;28;20573;-67
2021/05/11 06:01:08;;;;;;;12.53;4.40;;;13.80;99.90;;;;;;5044338;28;20425;-68
2021/05/11 06:06:11;;;;;;;10.10;3.40;;;13.80;99.90;;;;;;5040602;28;20435;-68
2021/05/11 06:08:39;;;;;;;10.80;4.50;;;13.80;99.90;;;;;;5017295;28;20415;-68
2021/05/11 06:13:41;;;;;;;9.87;3.50;;;13.80;99.90;;;;;;5054454;28;20418;-68
2021/05/11 06:18:52;;;;;;;10.80;5.47;;;13.90;99.90;;;;;;5055043;28;20497;-68
2021/05/11 06:21:17;;;;;;;9.33;4.50;;;14.00;99.90;;;;;;5040819;28;20423;-68
2021/05/11 06:23:43;;;;;;;9.60;4.17;;;14.00;99.90;;;;;;5034246;28;20453;-67
2021/05/11 06:26:10;;;;;;;8.90;3.63;;;14.00;99.90;;;;;;5046176;28;20293;-67
2021/05/11 06:28:39;;;;;;;10.30;4.30;;;14.00;99.90;;;;;;5054633;28;20406;-68
2021/05/11 06:31:05;;;;;;;9.80;4.00;;;14.00;99.90;;;;;;5042042;28;20933;-67
2021/05/11 06:33:30;;;;;;;11.00;3.70;;;14.10;99.90;;;;;;5034387;28;20491;-67
2021/05/11 06:35:56;;;;;;;9.57;4.10;;;14.10;99.90;;;;;;5043305;28;20206;-68
2021/05/11 06:38:22;;;;;;;11.40;4.70;;;14.20;99.90;;;;;;5054096;28;20173;-68
2021/05/11 06:40:47;;;;;;;11.37;5.07;;;14.20;99.90;;;;;;5046994;28;20192;-69
2021/05/11 06:43:17;;;;;;;13.10;4.97;;;14.20;99.90;;;;;;5034232;28;20549;-68
2021/05/11 06:48:17;;;;;;;8.57;4.30;;;14.20;99.90;;;;;;5054057;28;20477;-69
2021/05/11 06:53:31;;;;;;;11.27;5.37;;;14.30;99.90;;;;;;5033901;28;20405;-69
2021/05/11 06:55:57;;;;;;;10.30;4.87;;;14.40;99.90;;;;;;5040610;28;20604;-69
2021/05/11 06:58:23;;;;;;;11.50;4.07;;;14.40;99.90;;;;;;5054332;28;20413;-67
2021/05/11 07:00:49;;;;;;;9.37;3.63;;;14.40;99.90;;;;;;5048775;28;20423;-68
2021/05/11 07:03:14;;;;;;;11.20;4.00;;;14.40;99.90;;;;;;5050861;28;20573;-68
2021/05/11 07:05:41;;;;;;;8.00;3.23;;;14.40;99.90;;;;;;5045790;28;20383;-67
2021/05/11 07:08:16;;;;;;;10.03;4.50;;;14.40;99.90;;;;;;5034421;28;20407;-68
2021/05/11 07:10:46;;;;;;;13.27;4.30;;;14.50;99.90;;;;;;5033973;28;20178;-67
2021/05/11 07:13:13;;;;;;;10.87;4.17;;;14.50;99.90;;;;;;5033599;28;20426;-68
2021/05/11 07:15:41;;;;;;;9.80;3.67;;;14.50;99.90;;;;;;5039574;28;20521;-67
2021/05/11 07:18:23;;;;;;;8.80;4.50;;;14.60;99.90;;;;;;5034212;28;20428;-68
2021/05/11 07:20:55;;;;;;;9.10;3.33;;;14.60;99.90;;;;;;5040490;28;20504;-68
2021/05/11 07:23:21;;;;;;;9.77;4.37;;;14.70;99.90;;;;;;5053031;28;20453;-68
2021/05/11 07:26:23;;;;;;;10.10;3.60;;;14.70;99.90;;;;;;5046723;28;20526;-68
2021/05/11 07:31:16;;;;;;;11.00;4.10;;;14.70;99.90;;;;;;5043640;28;20806;-67
2021/05/11 07:33:44;;;;;;;9.17;4.20;;;14.70;99.90;;;;;;5015466;28;20617;-68
2021/05/11 07:36:11;;;;;;;8.17;3.37;;;14.80;99.90;;;;;;5036680;28;20802;-68
2021/05/11 07:38:38;;;;;;;9.40;3.33;;;14.80;99.90;;;;;;5033671;28;20896;-73
2021/05/11 07:41:08;;;;;;;9.53;4.23;;;14.90;99.90;;;;;;5040161;28;20477;-70
2021/05/11 07:43:36;;;;;;;9.90;3.90;;;15.00;99.90;;;;;;5053361;28;20462;-66
2021/05/11 08:04:27;;;;;;;8.43;2.93;;;15.70;99.90;;;;;;5042027;28;20436;-70
2021/05/11 08:17:43;;;;;;;9.43;4.33;;;16.00;99.90;;;;;;5025759;28;20512;-67
2021/05/11 08:28:30;;;;;;;11.30;4.13;;;16.00;99.90;;;;;;4960848;28;20405;-68
2021/05/11 08:30:56;;;;;;;10.30;3.73;;;16.00;99.90;;;;;;5033447;28;20435;-69
2021/05/11 08:33:21;;;;;;;8.40;4.10;;;16.00;99.90;;;;;;5036268;28;20170;-68
2021/05/11 08:35:51;;;;;;;7.07;3.27;;;15.90;99.90;;;;;;5054586;28;20202;-69
2021/05/11 08:38:17;;;;;;;8.30;3.00;;;15.90;99.90;;;;;;5056740;28;20184;-68
2021/05/11 08:40:42;;;;;;;10.67;4.00;;;16.10;99.90;;;;;;5046832;28;20420;-66
2021/05/11 08:43:28;;;;;;;10.50;2.80;;;16.20;99.90;;;;;;5052891;28;20486;-68
2021/05/11 08:45:55;;;;;;;9.20;2.90;;;16.40;99.90;;;;;;5055819;28;20276;-69
2021/05/11 08:48:23;;;;;;;9.40;3.30;;;16.50;99.90;;;;;;5045538;28;20499;-68
2021/05/11 08:50:57;;;;;;;7.73;3.10;;;16.60;99.90;;;;;;5053380;28;20917;-71
2021/05/11 08:53:44;;;;;;;6.60;3.13;;;16.70;99.90;;;;;;5055829;28;20511;-67
2021/05/11 09:27:23;;;;;;;5.27;2.70;;;17.20;99.90;;;;;;5045711;28;20437;-66
2021/05/11 09:57:37;;;;;;;5.73;2.43;;;17.90;99.90;;;;;;5055497;28;20474;-69
2021/05/11 10:48:56;;;;;;;6.80;3.10;;;17.50;99.90;;;;;;5044824;28;20451;-68
2021/05/11 10:51:24;;;;;;;6.40;2.50;;;17.60;99.90;;;;;;5034325;28;20424;-67
2021/05/11 10:54:01;;;;;;;8.60;3.10;;;17.80;99.90;;;;;;5048500;28;20604;-67
2021/05/11 11:01:39;;;;;;;6.73;2.87;;;18.00;99.90;;;;;;5038514;28;20426;-68
2021/05/11 11:04:16;;;;;;;6.10;2.47;;;18.00;99.90;;;;;;5032159;28;20469;-66
2021/05/11 11:06:57;;;;;;;7.40;2.93;;;18.10;99.90;;;;;;5031391;28;20419;-66
2021/05/11 11:09:28;;;;;;;6.43;2.80;;;18.10;99.90;;;;;;5033322;28;20416;-70
2021/05/11 11:11:54;;;;;;;6.33;2.20;;;18.10;99.90;;;;;;5032471;28;20419;-70
2021/05/11 11:14:20;;;;;;;6.70;2.60;;;18.10;99.90;;;;;;5019351;28;20437;-71
2021/05/11 11:16:48;;;;;;;5.10;2.23;;;18.10;99.90;;;;;;5032309;28;20416;-72
2021/05/11 11:19:16;;;;;;;6.77;2.83;;;18.10;99.90;;;;;;5033032;28;20398;-70
2021/05/11 11:24:30;;;;;;;6.13;2.63;;;18.10;99.90;;;;;;5049833;28;20462;-70
2021/05/11 11:26:58;;;;;;;6.37;2.70;;;18.10;99.90;;;;;;5033031;28;20441;-70
2021/05/11 11:29:24;;;;;;;7.23;3.03;;;18.20;99.90;;;;;;5032742;28;20424;-67
2021/05/11 11:31:50;;;;;;;9.77;2.73;;;18.40;99.90;;;;;;5024044;28;20984;-69
2021/05/11 11:34:20;;;;;;;5.07;2.43;;;18.50;99.90;;;;;;5043316;28;20501;-68
2021/05/11 11:36:47;;;;;;;6.20;2.70;;;18.60;99.90;;;;;;5036204;28;20418;-69
2021/05/11 11:39:21;;;;;;;8.30;3.20;;;18.80;99.90;;;;;;5030090;28;20457;-68
2021/05/11 11:41:48;;;;;;;9.83;3.20;;;18.80;99.90;;;;;;5037112;28;20411;-68
2021/05/11 11:44:15;;;;;;;8.37;3.60;;;18.80;99.90;;;;;;5034373;28;20551;-69
2021/05/11 11:46:41;;;;;;;8.23;2.93;;;18.80;99.90;;;;;;5049727;28;20478;-67
2021/05/11 11:49:11;;;;;;;7.87;3.67;;;18.80;99.90;;;;;;5040308;28;20416;-69
2021/05/11 11:51:38;;;;;;;7.30;3.90;;;18.90;99.90;;;;;;5036830;28;20188;-69
2021/05/11 11:55:06;;;;;;;7.17;3.40;;;18.80;99.90;;;;;;5038180;28;20427;-69
2021/05/11 11:59:33;;;;;;;5.63;3.00;;;18.70;99.90;;;;;;5038455;28;20859;-66
2021/05/11 12:02:02;;;;;;;6.77;3.40;;;18.80;99.90;;;;;;5033352;28;20795;-69
2021/05/11 12:04:28;;;;;;;8.87;3.90;;;18.70;99.90;;;;;;5033079;28;21008;-66
2021/05/11 12:07:00;;;;;;;9.57;3.80;;;18.80;99.90;;;;;;5049933;28;20420;-67
2021/05/11 12:09:26;;;;;;;7.10;3.90;;;18.70;99.90;;;;;;5038026;28;20798;-67
2021/05/11 12:11:52;;;;;;;8.83;3.20;;;18.60;99.90;;;;;;5056665;28;20431;-66
2021/05/11 12:14:18;;;;;;;8.40;4.33;;;18.60;99.90;;;;;;5053926;28;20248;-67
2021/05/11 12:16:45;;;;;;;9.27;4.03;;;18.60;99.90;;;;;;5039292;28;20432;-65
2021/05/11 12:19:15;;;;;;;7.70;4.27;;;18.70;99.90;;;;;;5039152;28;20178;-66
2021/05/11 12:22:06;;;;;;;8.83;4.97;;;18.70;99.90;;;;;;5056834;28;20473;-65
2021/05/11 12:24:40;;;;;;;13.23;6.60;;;18.80;99.90;;;;;;5058378;28;20478;-64
2021/05/11 12:27:22;;;;;;;7.30;3.43;;;19.00;99.90;;;;;;5042143;28;20438;-66
2021/05/11 12:30:06;;;;;;;7.23;4.10;;;19.20;99.90;;;;;;5036420;28;20423;-64
2021/05/11 12:32:33;;;;;;;6.50;3.43;;;19.30;99.90;;;;;;5019304;28;20412;-68
2021/05/11 12:35:09;;;;;;;6.50;3.63;;;19.40;99.90;;;;;;5018572;28;20432;-66
2021/05/11 12:37:46;;;;;;;6.37;3.53;;;19.30;99.90;;;;;;5019137;28;20409;-66
2021/05/11 12:40:33;;;;;;;11.60;3.40;;;19.30;99.90;;;;;;5045026;28;20841;-66
2021/05/11 12:43:03;;;;;;;5.00;2.43;;;19.20;99.90;;;;;;5052084;28;20453;-67
2021/05/11 12:45:35;;;;;;;5.63;2.73;;;19.10;99.90;;;;;;5057941;28;20446;-67
2021/05/11 12:48:03;;;;;;;6.50;3.20;;;19.20;99.90;;;;;;5059099;28;20412;-64
2021/05/11 12:50:34;;;;;;;5.10;2.50;;;19.10;99.90;;;;;;5058168;28;20418;-68
2021/05/11 12:53:59;;;;;;;5.83;3.10;;;19.10;99.90;;;;;;5049272;28;20420;-67
2021/05/11 12:56:33;;;;;;;6.23;3.27;;;19.10;99.90;;;;;;5035451;28;20822;-68
2021/05/11 13:01:47;;;;;;;7.00;3.90;;;19.10;99.90;;;;;;5048905;28;20945;-68
2021/05/11 13:22:55;;;;;;;10.63;4.77;;;18.30;99.90;;;;;;5055526;28;20475;-68
2021/05/11 13:25:55;;;;;;;10.60;5.60;;;18.10;99.90;;;;;;5054919;28;20440;-67
2021/05/11 13:28:17;;;;;;;8.57;3.90;;;17.90;99.90;;;;;;5053433;28;20754;-68
2021/05/11 13:35:53;;;;;;;7.27;3.70;;;17.50;99.90;;;;;;5048366;28;20444;-66
2021/05/11 13:38:21;;;;;;;6.33;2.87;;;17.30;99.90;;;;;;5035545;28;20445;-68
2021/05/11 13:40:46;;;;;;;7.30;3.73;;;17.20;99.90;;;;;;5039759;28;20420;-65
2021/05/11 13:43:12;;;;;;;5.70;2.80;;;17.10;99.90;;;;;;5052455;28;20471;-65
2021/05/11 13:45:38;;;;;;;5.77;3.00;;;17.00;99.90;;;;;;5050387;28;20185;-64
2021/05/11 13:48:14;;;;;;;7.80;3.00;;;16.90;99.90;;;;;;5053362;28;20184;-67
2021/05/11 13:53:05;;;;;;;7.43;3.20;;;16.60;99.90;;;;;;5035333;28;20428;-70
2021/05/11 13:55:38;;;;;;;6.20;3.00;;;16.50;99.90;;;;;;5054847;28;20756;-67
2021/05/11 14:03:32;;;;;;;6.43;3.07;;;16.20;99.90;;;;;;5021271;28;20471;-68
2021/05/11 14:05:58;;;;;;;9.70;4.77;;;16.10;99.90;;;;;;5051687;28;20443;-67
2021/05/11 14:08:24;;;;;;;6.70;3.40;;;16.00;99.90;;;;;;5054204;28;20184;-69
2021/05/11 14:10:49;;;;;;;7.60;3.87;;;15.90;99.90;;;;;;5054719;28;20624;-66
2021/05/11 14:13:15;;;;;;;7.00;3.47;;;15.80;99.90;;;;;;5022726;28;20643;-66
2021/05/11 14:15:41;;;;;;;7.13;3.57;;;15.70;99.90;;;;;;5035790;28;20201;-68
2021/05/11 14:18:07;;;;;;;10.47;3.87;;;15.60;99.90;;;;;;5042738;28;20334;-63
2021/05/11 14:20:32;;;;;;;7.73;3.97;;;15.60;99.90;;;;;;5045499;28;20513;-67
2021/05/11 14:22:58;;;;;;;6.97;2.90;;;15.50;99.90;;;;;;5038840;28;20196;-66
2021/05/11 14:25:23;;;;;;;5.63;2.70;;;15.50;99.90;;;;;;5053922;28;20192;-69
2021/05/11 14:27:49;;;;;;;7.23;3.37;;;15.40;99.90;;;;;;5050780;28;20208;-67
2021/05/11 14:30:16;;;;;;;6.80;2.77;;;15.50;99.90;;;;;;5033575;28;20251;-65
2021/05/11 14:32:41;;;;;;;6.80;2.67;;;15.40;99.90;;;;;;5034502;28;20185;-66
2021/05/11 14:35:08;;;;;;;4.97;1.60;;;15.50;99.90;;;;;;5039184;28;20457;-68
2021/05/11 14:37:33;;;;;;;7.27;2.60;;;15.40;99.90;;;;;;5047635;28;20196;-66
2021/05/11 14:39:59;;;;;;;5.47;2.20;;;15.40;99.90;;;;;;5048666;28;20944;-70
2021/05/11 14:42:24;;;;;;;5.57;2.13;;;15.50;99.90;;;;;;5054016;28;20203;-68
2021/05/11 14:44:52;;;;;;;5.67;2.70;;;15.50;99.90;;;;;;5037623;28;20196;-66
2021/05/11 14:47:18;;;;;;;5.43;2.27;;;15.50;99.90;;;;;;5015098;28;20205;-70
2021/05/11 14:49:44;;;;;;;4.97;1.93;;;15.40;99.90;;;;;;5016424;28;20462;-68
2021/05/11 14:52:12;;;;;;;5.70;2.00;;;15.30;99.90;;;;;;5033800;28;20173;-68
2021/05/11 14:54:40;;;;;;;4.80;1.57;;;15.20;99.90;;;;;;5033453;28;20216;-67
2021/05/11 14:57:08;;;;;;;5.40;1.70;;;15.10;99.90;;;;;;5015036;28;20462;-68
2021/05/11 14:59:34;;;;;;;4.90;1.63;;;15.10;99.90;;;;;;5037506;28;20470;-66
2021/05/11 15:01:59;;;;;;;5.90;1.80;;;15.00;99.90;;;;;;5034801;28;20406;-66
2021/05/11 15:04:25;;;;;;;6.27;1.60;;;14.90;99.90;;;;;;5036085;28;20214;-67
2021/05/11 15:06:52;;;;;;;5.83;1.70;;;14.80;99.90;;;;;;5033074;28;20173;-68
2021/05/11 15:09:18;;;;;;;5.40;1.70;;;14.80;99.90;;;;;;5032159;28;20561;-66
2021/05/11 15:11:43;;;;;;;6.77;2.20;;;14.70;99.90;;;;;;5045104;28;20422;-67
2021/05/11 15:14:09;;;;;;;4.80;1.27;;;14.70;99.90;;;;;;5046785;28;20272;-67
2021/05/11 15:16:39;;;;;;;4.87;1.37;;;14.70;99.90;;;;;;5029532;28;20198;-68
2021/05/11 15:19:06;;;;;;;5.00;1.13;;;14.70;99.90;;;;;;5024168;28;20273;-66
2021/05/11 15:21:33;;;;;;;5.77;1.87;;;14.60;99.90;;;;;;5028967;28;21043;-67
2021/05/11 15:23:59;;;;;;;4.70;1.13;;;14.60;99.90;;;;;;5026833;28;20459;-63
2021/05/11 15:26:30;;;;;;;5.33;1.57;;;14.60;99.90;;;;;;5040815;28;20439;-66
2021/05/11 15:28:56;;;;;;;6.10;1.53;;;14.60;99.90;;;;;;5034784;28;20415;-68
2021/05/11 15:31:22;;;;;;;4.90;1.23;;;14.50;99.90;;;;;;5033436;28;20782;-67
2021/05/11 15:33:48;;;;;;;4.90;1.03;;;14.50;99.90;;;;;;5032935;28;20419;-67
2021/05/11 15:36:13;;;;;;;5.33;1.03;;;14.40;99.90;;;;;;5033381;28;20428;-67
2021/05/11 15:38:39;;;;;;;5.70;1.27;;;14.40;99.90;;;;;;5033427;28;20183;-67
2021/05/11 15:41:05;;;;;;;4.50;0.90;;;14.30;99.90;;;;;;5033024;28;20203;-68
2021/05/11 15:43:31;;;;;;;5.30;1.20;;;14.30;99.90;;;;;;5032470;28;20196;-68
2021/05/11 15:45:57;;;;;;;5.13;1.33;;;14.20;99.90;;;;;;5039906;28;20434;-69
2021/05/11 15:48:24;;;;;;;5.50;1.30;;;14.20;99.90;;;;;;5045023;28;20184;-70
2021/05/11 15:50:52;;;;;;;5.03;1.30;;;14.10;99.90;;;;;;5052882;28;20176;-66
2021/05/11 15:53:21;;;;;;;5.10;1.20;;;14.00;99.90;;;;;;5046272;28;20426;-67
2021/05/11 15:55:50;;;;;;;5.10;0.80;;;14.00;99.90;;;;;;5047522;28;20444;-68
2021/05/11 15:58:17;;;;;;;5.77;1.70;;;13.90;99.90;;;;;;5047452;28;20431;-70
2021/05/11 16:00:53;;;;;;;5.00;1.20;;;13.90;99.90;;;;;;5015646;28;20430;-67
2021/05/11 16:03:19;;;;;;;5.17;1.40;;;13.80;99.90;;;;;;5037781;28;20488;-69
2021/05/11 16:05:45;;;;;;;5.13;1.20;;;13.80;99.90;;;;;;5043335;28;20439;-69
2021/05/11 16:08:12;;;;;;;4.70;1.30;;;13.80;99.90;;;;;;5041763;28;20421;-70
2021/05/11 16:10:39;;;;;;;4.70;0.90;;;13.80;99.90;;;;;;5035275;28;20414;-71
2021/05/11 16:13:05;;;;;;;5.07;1.40;;;13.80;99.90;;;;;;5040419;28;20918;-69
2021/05/11 16:15:33;;;;;;;4.80;1.30;;;13.80;99.90;;;;;;5051777;28;20449;-71
2021/05/11 16:18:00;;;;;;;4.60;0.93;;;13.80;99.90;;;;;;5051938;28;20717;-70
2021/05/11 16:20:26;;;;;;;6.37;1.63;;;13.70;99.90;;;;;;5052790;28;20408;-70
2021/05/11 16:22:52;;;;;;;5.07;1.20;;;13.70;99.90;;;;;;5023926;28;20538;-66
2021/05/11 16:25:18;;;;;;;7.20;2.33;;;13.70;99.90;;;;;;5014491;28;20526;-66
2021/05/11 16:27:44;;;;;;;5.83;1.57;;;13.70;99.90;;;;;;5034554;28;20422;-66
2021/05/11 16:30:15;;;;;;;5.33;1.50;;;13.70;99.90;;;;;;5049443;28;20448;-66
2021/05/11 16:32:41;;;;;;;5.03;1.43;;;13.70;99.90;;;;;;5042002;28;20417;-66
2021/05/11 16:35:08;;;;;;;5.40;1.70;;;13.70;99.90;;;;;;5052396;28;20775;-67
2021/05/11 16:37:35;;;;;;;4.93;1.30;;;13.70;99.90;;;;;;5052044;28;20844;-65
2021/05/11 16:40:00;;;;;;;5.45;1.52;;;13.70;99.90;;;;;;5052832;28;20418;-65
2021/05/11 16:42:26;;;;;;;5.57;1.87;;;13.70;99.90;;;;;;5029123;28;20554;-66
2021/05/11 16:44:52;;;;;;;5.10;1.53;;;13.70;99.90;;;;;;5032354;28;20209;-65
2021/05/11 16:47:18;;;;;;;4.80;1.20;;;13.60;99.90;;;;;;5032820;28;20173;-68
2021/05/11 16:49:43;;;;;;;4.80;1.10;;;13.60;99.90;;;;;;5032911;28;20188;-66
2021/05/11 16:52:09;;;;;;;8.40;3.40;;;13.70;99.90;;;;;;5018050;28;20424;-66
2021/05/11 16:54:35;;;;;;;4.80;1.17;;;13.60;99.90;;;;;;5056050;28;20319;-66
2021/05/11 16:57:01;;;;;;;4.83;1.10;;;13.60;99.90;;;;;;5056135;28;20894;-67
2021/05/11 16:59:27;;;;;;;4.50;1.20;;;13.60;99.90;;;;;;5037113;28;20181;-65
2021/05/11 17:01:52;;;;;;;4.80;1.00;;;13.60;99.90;;;;;;5055695;28;20417;-67
2021/05/11 17:04:18;;;;;;;4.50;0.83;;;13.60;99.90;;;;;;5035520;28;20203;-66
2021/05/11 17:06:44;;;;;;;4.83;1.00;;;13.60;99.90;;;;;;5036176;28;20172;-66
2021/05/11 17:09:10;;;;;;;4.47;0.83;;;13.50;99.90;;;;;;5054535;28;20170;-70
2021/05/11 17:11:38;;;;;;;6.25;1.45;;;13.50;99.90;;;;;;5056093;28;20174;-70
2021/05/11 17:14:11;;;;;;;4.93;1.27;;;13.50;99.90;;;;;;5053444;28;20187;-68
2021/05/11 17:16:37;;;;;;;4.90;1.50;;;13.50;99.90;;;;;;4997062;28;20419;-68
2021/05/11 17:19:04;;;;;;;4.80;1.03;;;13.50;99.90;;;;;;5032937;28;20431;-67